65TA weather

Public forecast

Using degrees Fahrenheit for public forecast. Weather courtesy of forecast.io.

Closest aviation weather report (METAR) to Flying C Ranch Airport

Closest report is Brenham Municipal Airport, 8.2 nm (15.2 km) SSW. Retrieved 2020/08/10 07:55 UTC (7 minutes ago):

K11R 100755Z AUTO 15003KT 10SM CLR 26/25 A3006 RMK AO2 T02550246

Closest aviation forecast (TAF) to Flying C Ranch Airport

Closest forecast is Easterwood Field, 15.0 nm (27.8 km) N. Retrieved 2020/08/10 06:22 UTC (2 hours ago):

TAF KCLL 100520Z 1006/1106 17006KT P6SM SKC FM101100 17004KT P6SM BKN015 FM101500 19010KT P6SM SCT030 FM101800 17011KT P6SM FEW050